sensor_id;sensor_type;location;lat;lon;timestamp;temperature;humidity
23079;DHT22;11707;50.830;4.364;2022-08-16T00:01:34;23.00;99.90
23079;DHT22;11707;50.830;4.364;2022-08-16T00:04:00;22.80;99.90
23079;DHT22;11707;50.830;4.364;2022-08-16T00:06:26;22.80;99.90
23079;DHT22;11707;50.830;4.364;2022-08-16T00:08:53;22.80;99.90
23079;DHT22;11707;50.830;4.364;2022-08-16T00:11:20;23.00;99.90
23079;DHT22;11707;50.830;4.364;2022-08-16T00:13:48;23.10;99.90
23079;DHT22;11707;50.830;4.364;2022-08-16T00:16:13;23.10;99.90
23079;DHT22;11707;50.830;4.364;2022-08-16T00:18:39;23.10;99.90
23079;DHT22;11707;50.830;4.364;2022-08-16T00:21:05;23.20;99.90
23079;DHT22;11707;50.830;4.364;2022-08-16T00:23:30;23.20;99.90
23079;DHT22;11707;50.830;4.364;2022-08-16T00:25:56;23.00;99.90
23079;DHT22;11707;50.830;4.364;2022-08-16T00:28:22;22.90;99.90
23079;DHT22;11707;50.830;4.364;2022-08-16T00:30:48;22.90;99.90
23079;DHT22;11707;50.830;4.364;2022-08-16T00:33:14;22.80;99.90
23079;DHT22;11707;50.830;4.364;2022-08-16T00:35:40;22.80;99.90
23079;DHT22;11707;50.830;4.364;2022-08-16T00:38:06;22.90;99.90
23079;DHT22;11707;50.830;4.364;2022-08-16T00:40:47;22.90;99.90
23079;DHT22;11707;50.830;4.364;2022-08-16T00:43:18;23.00;99.90
23079;DHT22;11707;50.830;4.364;2022-08-16T00:48:34;22.40;99.90
23079;DHT22;11707;50.830;4.364;2022-08-16T00:51:02;22.20;99.90
23079;DHT22;11707;50.830;4.364;2022-08-16T00:53:28;22.10;99.90
23079;DHT22;11707;50.830;4.364;2022-08-16T00:55:56;22.20;99.90
23079;DHT22;11707;50.830;4.364;2022-08-16T00:58:25;22.20;99.90
23079;DHT22;11707;50.830;4.364;2022-08-16T01:00:52;22.20;99.90
23079;DHT22;11707;50.830;4.364;2022-08-16T01:03:21;22.30;99.90
23079;DHT22;11707;50.830;4.364;2022-08-16T01:05:47;22.10;99.90
23079;DHT22;11707;50.830;4.364;2022-08-16T01:08:14;22.20;99.90
23079;DHT22;11707;50.830;4.364;2022-08-16T01:10:41;22.00;99.90
23079;DHT22;11707;50.830;4.364;2022-08-16T01:13:22;22.00;99.90
23079;DHT22;11707;50.830;4.364;2022-08-16T01:15:58;21.90;99.90
23079;DHT22;11707;50.830;4.364;2022-08-16T01:18:36;22.10;99.90
23079;DHT22;11707;50.830;4.364;2022-08-16T01:26:32;22.30;99.90
23079;DHT22;11707;50.830;4.364;2022-08-16T01:29:03;22.40;99.90
23079;DHT22;11707;50.830;4.364;2022-08-16T01:31:30;22.50;99.90
23079;DHT22;11707;50.830;4.364;2022-08-16T01:33:57;22.50;99.90
23079;DHT22;11707;50.830;4.364;2022-08-16T01:36:23;22.50;99.90
23079;DHT22;11707;50.830;4.364;2022-08-16T01:38:49;22.40;99.90
23079;DHT22;11707;50.830;4.364;2022-08-16T01:41:19;22.40;99.90
23079;DHT22;11707;50.830;4.364;2022-08-16T01:43:47;22.30;99.90
23079;DHT22;11707;50.830;4.364;2022-08-16T01:46:39;22.20;99.90
23079;DHT22;11707;50.830;4.364;2022-08-16T01:49:21;22.00;99.90
23079;DHT22;11707;50.830;4.364;2022-08-16T01:51:52;21.90;99.90
23079;DHT22;11707;50.830;4.364;2022-08-16T01:54:19;22.00;99.90
23079;DHT22;11707;50.830;4.364;2022-08-16T01:56:45;22.00;99.90
23079;DHT22;11707;50.830;4.364;2022-08-16T01:59:12;22.00;99.90
23079;DHT22;11707;50.830;4.364;2022-08-16T02:01:38;21.70;99.90
23079;DHT22;11707;50.830;4.364;2022-08-16T02:04:04;21.60;99.90
23079;DHT22;11707;50.830;4.364;2022-08-16T02:06:31;21.50;99.90
23079;DHT22;11707;50.830;4.364;2022-08-16T02:08:56;21.40;99.90
23079;DHT22;11707;50.830;4.364;2022-08-16T02:11:24;21.40;99.90
23079;DHT22;11707;50.830;4.364;2022-08-16T02:13:50;21.60;99.90
23079;DHT22;11707;50.830;4.364;2022-08-16T02:16:16;21.70;99.90
23079;DHT22;11707;50.830;4.364;2022-08-16T02:18:42;21.70;99.90
23079;DHT22;11707;50.830;4.364;2022-08-16T02:21:08;21.50;99.90
23079;DHT22;11707;50.830;4.364;2022-08-16T02:23:37;21.60;99.90
23079;DHT22;11707;50.830;4.364;2022-08-16T02:26:04;21.50;99.90
23079;DHT22;11707;50.830;4.364;2022-08-16T02:28:30;21.30;99.90
23079;DHT22;11707;50.830;4.364;2022-08-16T02:30:58;21.20;99.90
23079;DHT22;11707;50.830;4.364;2022-08-16T02:33:27;21.30;99.90
23079;DHT22;11707;50.830;4.364;2022-08-16T02:35:53;21.40;99.90
23079;DHT22;11707;50.830;4.364;2022-08-16T02:38:18;21.40;99.90
23079;DHT22;11707;50.830;4.364;2022-08-16T02:40:44;21.30;99.90
23079;DHT22;11707;50.830;4.364;2022-08-16T02:43:10;21.20;99.90
23079;DHT22;11707;50.830;4.364;2022-08-16T02:45:35;21.10;99.90
23079;DHT22;11707;50.830;4.364;2022-08-16T02:48:01;21.00;99.90
23079;DHT22;11707;50.830;4.364;2022-08-16T02:50:27;21.00;99.90
23079;DHT22;11707;50.830;4.364;2022-08-16T02:52:53;21.00;99.90
23079;DHT22;11707;50.830;4.364;2022-08-16T02:55:20;21.10;99.90
23079;DHT22;11707;50.830;4.364;2022-08-16T02:57:46;21.20;99.90
23079;DHT22;11707;50.830;4.364;2022-08-16T03:00:13;21.00;99.90
23079;DHT22;11707;50.830;4.364;2022-08-16T03:02:40;21.10;99.90
23079;DHT22;11707;50.830;4.364;2022-08-16T03:05:08;21.10;99.90
23079;DHT22;11707;50.830;4.364;2022-08-16T03:07:34;21.20;99.90
23079;DHT22;11707;50.830;4.364;2022-08-16T03:10:00;21.20;99.90
23079;DHT22;11707;50.830;4.364;2022-08-16T03:12:26;21.20;99.90
23079;DHT22;11707;50.830;4.364;2022-08-16T03:14:52;21.10;99.90
23079;DHT22;11707;50.830;4.364;2022-08-16T03:17:17;21.20;99.90
23079;DHT22;11707;50.830;4.364;2022-08-16T03:19:44;21.20;99.90
23079;DHT22;11707;50.830;4.364;2022-08-16T03:22:09;21.30;99.90
23079;DHT22;11707;50.830;4.364;2022-08-16T03:24:36;21.30;99.90
23079;DHT22;11707;50.830;4.364;2022-08-16T03:27:02;21.30;99.90
23079;DHT22;11707;50.830;4.364;2022-08-16T03:29:30;21.10;99.90
23079;DHT22;11707;50.830;4.364;2022-08-16T03:32:00;21.10;99.90
23079;DHT22;11707;50.830;4.364;2022-08-16T03:34:26;21.10;99.90
23079;DHT22;11707;50.830;4.364;2022-08-16T03:36:52;21.00;99.90
23079;DHT22;11707;50.830;4.364;2022-08-16T03:39:19;21.10;99.90
23079;DHT22;11707;50.830;4.364;2022-08-16T03:41:44;21.10;99.90
23079;DHT22;11707;50.830;4.364;2022-08-16T03:44:10;21.10;99.90
23079;DHT22;11707;50.830;4.364;2022-08-16T03:46:38;21.10;99.90
23079;DHT22;11707;50.830;4.364;2022-08-16T03:49:03;21.10;99.90
23079;DHT22;11707;50.830;4.364;2022-08-16T03:51:29;21.10;99.90
23079;DHT22;11707;50.830;4.364;2022-08-16T03:53:55;21.10;99.90
23079;DHT22;11707;50.830;4.364;2022-08-16T03:56:22;21.00;99.90
23079;DHT22;11707;50.830;4.364;2022-08-16T03:58:48;20.90;99.90
23079;DHT22;11707;50.830;4.364;2022-08-16T04:01:14;20.80;99.90
23079;DHT22;11707;50.830;4.364;2022-08-16T04:03:40;20.80;99.90
23079;DHT22;11707;50.830;4.364;2022-08-16T04:06:05;20.80;99.90
23079;DHT22;11707;50.830;4.364;2022-08-16T04:08:32;20.60;99.90
23079;DHT22;11707;50.830;4.364;2022-08-16T04:10:58;20.40;99.90
23079;DHT22;11707;50.830;4.364;2022-08-16T04:13:24;20.50;99.90
23079;DHT22;11707;50.830;4.364;2022-08-16T04:15:50;20.50;99.90
23079;DHT22;11707;50.830;4.364;2022-08-16T04:18:17;20.50;99.90
23079;DHT22;11707;50.830;4.364;2022-08-16T04:20:43;20.50;99.90
23079;DHT22;11707;50.830;4.364;2022-08-16T04:23:09;20.40;99.90
23079;DHT22;11707;50.830;4.364;2022-08-16T04:25:35;20.40;99.90
23079;DHT22;11707;50.830;4.364;2022-08-16T04:28:01;20.40;99.90
23079;DHT22;11707;50.830;4.364;2022-08-16T04:30:27;20.40;99.90
23079;DHT22;11707;50.830;4.364;2022-08-16T04:32:53;20.40;99.90
23079;DHT22;11707;50.830;4.364;2022-08-16T04:35:21;20.60;99.90
23079;DHT22;11707;50.830;4.364;2022-08-16T04:37:48;20.60;99.90
23079;DHT22;11707;50.830;4.364;2022-08-16T04:40:15;20.60;99.90
23079;DHT22;11707;50.830;4.364;2022-08-16T04:42:41;20.60;99.90
23079;DHT22;11707;50.830;4.364;2022-08-16T04:45:09;20.70;99.90
23079;DHT22;11707;50.830;4.364;2022-08-16T04:47:35;20.70;99.90
23079;DHT22;11707;50.830;4.364;2022-08-16T04:50:22;20.70;99.90
23079;DHT22;11707;50.830;4.364;2022-08-16T04:52:50;20.70;99.90
23079;DHT22;11707;50.830;4.364;2022-08-16T04:55:22;20.70;99.90
23079;DHT22;11707;50.830;4.364;2022-08-16T04:57:50;20.60;99.90
23079;DHT22;11707;50.830;4.364;2022-08-16T05:00:20;20.60;99.90
23079;DHT22;11707;50.830;4.364;2022-08-16T05:02:52;20.60;99.90
23079;DHT22;11707;50.830;4.364;2022-08-16T05:05:19;20.60;99.90
23079;DHT22;11707;50.830;4.364;2022-08-16T05:07:46;20.60;99.90
23079;DHT22;11707;50.830;4.364;2022-08-16T05:10:11;20.60;99.90
23079;DHT22;11707;50.830;4.364;2022-08-16T05:12:37;20.70;99.90
23079;DHT22;11707;50.830;4.364;2022-08-16T05:15:04;20.70;99.90
23079;DHT22;11707;50.830;4.364;2022-08-16T05:17:30;20.60;99.90
23079;DHT22;11707;50.830;4.364;2022-08-16T05:19:57;20.60;99.90
23079;DHT22;11707;50.830;4.364;2022-08-16T05:22:23;20.60;99.90
23079;DHT22;11707;50.830;4.364;2022-08-16T05:24:48;20.60;99.90
23079;DHT22;11707;50.830;4.364;2022-08-16T05:27:15;20.40;99.90
23079;DHT22;11707;50.830;4.364;2022-08-16T05:29:41;20.50;99.90
23079;DHT22;11707;50.830;4.364;2022-08-16T05:32:07;20.60;99.90
23079;DHT22;11707;50.830;4.364;2022-08-16T05:34:33;20.70;99.90
23079;DHT22;11707;50.830;4.364;2022-08-16T05:36:59;20.60;99.90
23079;DHT22;11707;50.830;4.364;2022-08-16T05:39:26;20.50;99.90
23079;DHT22;11707;50.830;4.364;2022-08-16T05:41:52;20.60;99.90
23079;DHT22;11707;50.830;4.364;2022-08-16T05:44:22;20.70;99.90
23079;DHT22;11707;50.830;4.364;2022-08-16T05:46:57;20.90;99.90
23079;DHT22;11707;50.830;4.364;2022-08-16T05:49:25;21.10;99.90
23079;DHT22;11707;50.830;4.364;2022-08-16T05:51:51;21.20;99.90
23079;DHT22;11707;50.830;4.364;2022-08-16T05:54:20;21.20;99.90
23079;DHT22;11707;50.830;4.364;2022-08-16T05:56:46;21.30;99.90
23079;DHT22;11707;50.830;4.364;2022-08-16T05:59:13;21.40;99.90
23079;DHT22;11707;50.830;4.364;2022-08-16T06:01:40;21.30;99.90
23079;DHT22;11707;50.830;4.364;2022-08-16T06:04:07;21.40;99.90
23079;DHT22;11707;50.830;4.364;2022-08-16T06:06:33;21.60;99.90
23079;DHT22;11707;50.830;4.364;2022-08-16T06:08:59;21.60;99.90
23079;DHT22;11707;50.830;4.364;2022-08-16T06:11:24;21.70;99.90
23079;DHT22;11707;50.830;4.364;2022-08-16T06:13:50;21.80;99.90
23079;DHT22;11707;50.830;4.364;2022-08-16T06:16:16;21.70;99.90
23079;DHT22;11707;50.830;4.364;2022-08-16T06:18:42;21.80;99.90
23079;DHT22;11707;50.830;4.364;2022-08-16T06:21:11;21.90;99.90
23079;DHT22;11707;50.830;4.364;2022-08-16T06:23:37;22.00;99.90
23079;DHT22;11707;50.830;4.364;2022-08-16T06:26:04;22.10;99.90
23079;DHT22;11707;50.830;4.364;2022-08-16T06:28:30;22.20;99.90
23079;DHT22;11707;50.830;4.364;2022-08-16T06:30:57;22.00;99.90
23079;DHT22;11707;50.830;4.364;2022-08-16T06:33:23;22.10;99.90
23079;DHT22;11707;50.830;4.364;2022-08-16T06:35:50;21.90;99.90
23079;DHT22;11707;50.830;4.364;2022-08-16T06:38:16;21.80;99.90
23079;DHT22;11707;50.830;4.364;2022-08-16T06:40:41;21.90;99.90
23079;DHT22;11707;50.830;4.364;2022-08-16T06:43:08;22.10;99.90
23079;DHT22;11707;50.830;4.364;2022-08-16T06:45:33;22.10;99.90
23079;DHT22;11707;50.830;4.364;2022-08-16T06:48:03;22.10;99.90
23079;DHT22;11707;50.830;4.364;2022-08-16T06:50:29;22.10;99.90
23079;DHT22;11707;50.830;4.364;2022-08-16T06:52:56;22.20;99.90
23079;DHT22;11707;50.830;4.364;2022-08-16T06:55:22;22.20;99.90
23079;DHT22;11707;50.830;4.364;2022-08-16T06:57:50;22.30;99.90
23079;DHT22;11707;50.830;4.364;2022-08-16T07:00:16;22.40;99.90
23079;DHT22;11707;50.830;4.364;2022-08-16T07:02:43;22.60;99.90
23079;DHT22;11707;50.830;4.364;2022-08-16T07:05:10;22.70;99.90
23079;DHT22;11707;50.830;4.364;2022-08-16T07:07:36;22.70;99.90
23079;DHT22;11707;50.830;4.364;2022-08-16T07:10:03;22.70;99.90
23079;DHT22;11707;50.830;4.364;2022-08-16T07:12:30;22.80;99.90
23079;DHT22;11707;50.830;4.364;2022-08-16T07:14:56;22.90;99.90
23079;DHT22;11707;50.830;4.364;2022-08-16T07:17:22;23.10;99.90
23079;DHT22;11707;50.830;4.364;2022-08-16T07:19:49;23.30;99.90
23079;DHT22;11707;50.830;4.364;2022-08-16T07:22:16;23.50;99.90
23079;DHT22;11707;50.830;4.364;2022-08-16T07:24:42;23.80;99.90
23079;DHT22;11707;50.830;4.364;2022-08-16T07:27:10;23.90;99.90
23079;DHT22;11707;50.830;4.364;2022-08-16T07:29:37;23.80;99.90
23079;DHT22;11707;50.830;4.364;2022-08-16T07:32:03;23.60;99.90
23079;DHT22;11707;50.830;4.364;2022-08-16T07:34:29;23.70;99.90
23079;DHT22;11707;50.830;4.364;2022-08-16T07:36:56;23.70;99.90
23079;DHT22;11707;50.830;4.364;2022-08-16T07:39:22;23.80;99.90
23079;DHT22;11707;50.830;4.364;2022-08-16T07:41:48;23.90;99.90
23079;DHT22;11707;50.830;4.364;2022-08-16T07:44:14;23.80;99.90
23079;DHT22;11707;50.830;4.364;2022-08-16T07:46:39;24.00;99.90
23079;DHT22;11707;50.830;4.364;2022-08-16T07:49:05;24.00;99.90
23079;DHT22;11707;50.830;4.364;2022-08-16T07:51:32;24.00;99.90
23079;DHT22;11707;50.830;4.364;2022-08-16T07:54:00;24.00;99.90
23079;DHT22;11707;50.830;4.364;2022-08-16T07:56:27;24.20;99.90
23079;DHT22;11707;50.830;4.364;2022-08-16T07:58:54;24.30;99.90
23079;DHT22;11707;50.830;4.364;2022-08-16T08:01:19;24.50;99.90
23079;DHT22;11707;50.830;4.364;2022-08-16T08:03:48;24.50;99.90
23079;DHT22;11707;50.830;4.364;2022-08-16T08:06:17;24.40;99.90
23079;DHT22;11707;50.830;4.364;2022-08-16T08:08:44;24.50;99.90
23079;DHT22;11707;50.830;4.364;2022-08-16T08:11:09;24.50;99.90
23079;DHT22;11707;50.830;4.364;2022-08-16T08:13:36;24.40;99.90
23079;DHT22;11707;50.830;4.364;2022-08-16T08:16:01;24.50;99.90
23079;DHT22;11707;50.830;4.364;2022-08-16T08:18:27;24.50;99.90
23079;DHT22;11707;50.830;4.364;2022-08-16T08:20:55;24.60;99.90
23079;DHT22;11707;50.830;4.364;2022-08-16T08:23:21;24.70;99.90
23079;DHT22;11707;50.830;4.364;2022-08-16T08:25:48;24.90;99.90
23079;DHT22;11707;50.830;4.364;2022-08-16T08:28:14;24.50;99.90
23079;DHT22;11707;50.830;4.364;2022-08-16T08:30:41;24.60;99.90
23079;DHT22;11707;50.830;4.364;2022-08-16T08:33:07;24.80;99.90
23079;DHT22;11707;50.830;4.364;2022-08-16T08:35:33;24.80;99.90
23079;DHT22;11707;50.830;4.364;2022-08-16T08:38:00;24.90;99.90
23079;DHT22;11707;50.830;4.364;2022-08-16T08:40:27;25.10;99.90
23079;DHT22;11707;50.830;4.364;2022-08-16T08:42:57;25.10;99.90
23079;DHT22;11707;50.830;4.364;2022-08-16T08:45:24;25.10;99.90
23079;DHT22;11707;50.830;4.364;2022-08-16T08:47:49;24.90;99.90
23079;DHT22;11707;50.830;4.364;2022-08-16T08:50:16;25.00;99.90
23079;DHT22;11707;50.830;4.364;2022-08-16T08:52:44;25.50;99.90
23079;DHT22;11707;50.830;4.364;2022-08-16T08:55:12;25.80;99.90
23079;DHT22;11707;50.830;4.364;2022-08-16T08:57:45;25.90;99.90
23079;DHT22;11707;50.830;4.364;2022-08-16T09:00:13;26.00;99.90
23079;DHT22;11707;50.830;4.364;2022-08-16T09:02:41;25.90;99.90
23079;DHT22;11707;50.830;4.364;2022-08-16T09:05:08;25.90;99.90
23079;DHT22;11707;50.830;4.364;2022-08-16T09:07:34;26.00;99.90
23079;DHT22;11707;50.830;4.364;2022-08-16T09:10:03;26.00;99.90
23079;DHT22;11707;50.830;4.364;2022-08-16T09:12:28;26.20;99.90
23079;DHT22;11707;50.830;4.364;2022-08-16T09:14:54;26.40;99.90
23079;DHT22;11707;50.830;4.364;2022-08-16T09:17:20;26.30;99.90
23079;DHT22;11707;50.830;4.364;2022-08-16T09:19:46;26.40;99.90
23079;DHT22;11707;50.830;4.364;2022-08-16T09:22:12;26.20;99.90
23079;DHT22;11707;50.830;4.364;2022-08-16T09:24:38;26.30;99.90
23079;DHT22;11707;50.830;4.364;2022-08-16T09:27:04;25.90;99.90
23079;DHT22;11707;50.830;4.364;2022-08-16T09:29:30;26.00;99.90
23079;DHT22;11707;50.830;4.364;2022-08-16T09:31:57;26.00;99.90
23079;DHT22;11707;50.830;4.364;2022-08-16T09:34:23;26.00;99.90
23079;DHT22;11707;50.830;4.364;2022-08-16T09:36:49;25.90;99.90
23079;DHT22;11707;50.830;4.364;2022-08-16T09:39:15;25.90;99.90
23079;DHT22;11707;50.830;4.364;2022-08-16T09:41:45;25.90;99.90
23079;DHT22;11707;50.830;4.364;2022-08-16T09:44:18;25.90;99.90
23079;DHT22;11707;50.830;4.364;2022-08-16T09:46:48;25.80;99.90
23079;DHT22;11707;50.830;4.364;2022-08-16T09:49:14;25.70;99.90
23079;DHT22;11707;50.830;4.364;2022-08-16T09:51:41;25.70;99.90
23079;DHT22;11707;50.830;4.364;2022-08-16T09:54:08;25.80;99.90
23079;DHT22;11707;50.830;4.364;2022-08-16T09:56:36;25.90;99.90
23079;DHT22;11707;50.830;4.364;2022-08-16T09:59:04;25.90;99.90
23079;DHT22;11707;50.830;4.364;2022-08-16T10:01:30;26.10;99.90
23079;DHT22;11707;50.830;4.364;2022-08-16T10:03:56;26.20;99.90
23079;DHT22;11707;50.830;4.364;2022-08-16T10:06:25;26.10;99.90
23079;DHT22;11707;50.830;4.364;2022-08-16T10:08:52;26.20;99.90
23079;DHT22;11707;50.830;4.364;2022-08-16T10:11:17;26.00;99.90
23079;DHT22;11707;50.830;4.364;2022-08-16T10:14:02;26.20;99.90
23079;DHT22;11707;50.830;4.364;2022-08-16T10:16:28;26.10;99.90
23079;DHT22;11707;50.830;4.364;2022-08-16T10:18:54;26.20;99.90
23079;DHT22;11707;50.830;4.364;2022-08-16T10:21:20;26.10;99.90
23079;DHT22;11707;50.830;4.364;2022-08-16T10:23:47;26.00;99.90
23079;DHT22;11707;50.830;4.364;2022-08-16T10:26:14;26.10;99.90
23079;DHT22;11707;50.830;4.364;2022-08-16T10:28:40;26.40;99.90
23079;DHT22;11707;50.830;4.364;2022-08-16T10:31:07;26.50;99.90
23079;DHT22;11707;50.830;4.364;2022-08-16T10:33:34;26.60;99.90
23079;DHT22;11707;50.830;4.364;2022-08-16T10:36:02;26.60;99.90
23079;DHT22;11707;50.830;4.364;2022-08-16T10:38:30;26.40;99.90
23079;DHT22;11707;50.830;4.364;2022-08-16T10:40:56;26.40;99.90
23079;DHT22;11707;50.830;4.364;2022-08-16T10:43:22;26.60;99.90
23079;DHT22;11707;50.830;4.364;2022-08-16T10:45:48;27.00;99.90
23079;DHT22;11707;50.830;4.364;2022-08-16T10:48:16;26.80;99.90
23079;DHT22;11707;50.830;4.364;2022-08-16T10:50:43;26.90;99.90
23079;DHT22;11707;50.830;4.364;2022-08-16T10:53:09;26.80;99.90
23079;DHT22;11707;50.830;4.364;2022-08-16T10:55:37;27.10;99.90
23079;DHT22;11707;50.830;4.364;2022-08-16T10:58:08;27.00;99.90
23079;DHT22;11707;50.830;4.364;2022-08-16T11:00:36;27.30;99.90
23079;DHT22;11707;50.830;4.364;2022-08-16T11:03:04;27.30;99.90
23079;DHT22;11707;50.830;4.364;2022-08-16T11:05:32;27.00;99.90
23079;DHT22;11707;50.830;4.364;2022-08-16T11:08:00;27.20;99.90
23079;DHT22;11707;50.830;4.364;2022-08-16T11:10:35;27.30;99.90
23079;DHT22;11707;50.830;4.364;2022-08-16T11:13:02;27.20;99.90
23079;DHT22;11707;50.830;4.364;2022-08-16T11:15:31;27.20;99.90
23079;DHT22;11707;50.830;4.364;2022-08-16T11:17:57;27.40;99.90
23079;DHT22;11707;50.830;4.364;2022-08-16T11:20:23;27.50;99.90
23079;DHT22;11707;50.830;4.364;2022-08-16T11:22:49;27.50;99.90
23079;DHT22;11707;50.830;4.364;2022-08-16T11:25:19;27.40;99.90
23079;DHT22;11707;50.830;4.364;2022-08-16T11:27:45;27.60;99.90
23079;DHT22;11707;50.830;4.364;2022-08-16T11:30:13;27.80;99.90
23079;DHT22;11707;50.830;4.364;2022-08-16T11:32:40;28.00;99.90
23079;DHT22;11707;50.830;4.364;2022-08-16T11:35:17;27.80;99.90
23079;DHT22;11707;50.830;4.364;2022-08-16T11:37:49;27.40;99.90
23079;DHT22;11707;50.830;4.364;2022-08-16T11:40:15;27.40;99.90
23079;DHT22;11707;50.830;4.364;2022-08-16T11:42:42;27.50;99.90
23079;DHT22;11707;50.830;4.364;2022-08-16T11:45:08;27.70;99.90
23079;DHT22;11707;50.830;4.364;2022-08-16T11:47:34;27.40;99.90
23079;DHT22;11707;50.830;4.364;2022-08-16T11:50:04;27.70;99.90
23079;DHT22;11707;50.830;4.364;2022-08-16T11:52:32;28.00;99.90
23079;DHT22;11707;50.830;4.364;2022-08-16T11:54:59;27.90;99.90
23079;DHT22;11707;50.830;4.364;2022-08-16T11:57:25;28.20;99.90
23079;DHT22;11707;50.830;4.364;2022-08-16T11:59:51;28.40;99.90
23079;DHT22;11707;50.830;4.364;2022-08-16T12:02:16;28.40;99.70
23079;DHT22;11707;50.830;4.364;2022-08-16T12:04:42;27.80;99.90
23079;DHT22;11707;50.830;4.364;2022-08-16T12:07:10;27.40;99.90
23079;DHT22;11707;50.830;4.364;2022-08-16T12:09:35;27.10;99.90
23079;DHT22;11707;50.830;4.364;2022-08-16T12:12:01;27.00;99.90
23079;DHT22;11707;50.830;4.364;2022-08-16T12:14:27;27.10;99.90
23079;DHT22;11707;50.830;4.364;2022-08-16T12:16:54;27.30;99.90
23079;DHT22;11707;50.830;4.364;2022-08-16T12:19:21;27.50;99.90
23079;DHT22;11707;50.830;4.364;2022-08-16T12:21:48;27.50;99.90
23079;DHT22;11707;50.830;4.364;2022-08-16T12:24:13;27.60;99.90
23079;DHT22;11707;50.830;4.364;2022-08-16T12:26:39;28.00;99.90
23079;DHT22;11707;50.830;4.364;2022-08-16T12:29:05;28.40;99.90
23079;DHT22;11707;50.830;4.364;2022-08-16T12:31:31;28.20;99.90
23079;DHT22;11707;50.830;4.364;2022-08-16T12:33:57;28.40;99.90
23079;DHT22;11707;50.830;4.364;2022-08-16T12:36:24;28.60;99.40
23079;DHT22;11707;50.830;4.364;2022-08-16T12:38:50;28.60;99.20
23079;DHT22;11707;50.830;4.364;2022-08-16T12:41:16;28.60;98.90
23079;DHT22;11707;50.830;4.364;2022-08-16T12:43:42;28.50;99.20
23079;DHT22;11707;50.830;4.364;2022-08-16T12:46:09;28.70;98.90
23079;DHT22;11707;50.830;4.364;2022-08-16T12:48:37;28.40;99.40
23079;DHT22;11707;50.830;4.364;2022-08-16T12:51:30;28.20;99.80
23079;DHT22;11707;50.830;4.364;2022-08-16T12:53:58;28.40;99.60
23079;DHT22;11707;50.830;4.364;2022-08-16T12:56:28;28.80;99.00
23079;DHT22;11707;50.830;4.364;2022-08-16T12:58:55;28.90;98.70
23079;DHT22;11707;50.830;4.364;2022-08-16T13:01:27;29.90;98.00
23079;DHT22;11707;50.830;4.364;2022-08-16T13:03:55;31.30;96.00
23079;DHT22;11707;50.830;4.364;2022-08-16T13:06:22;31.90;93.70
23079;DHT22;11707;50.830;4.364;2022-08-16T13:08:48;32.30;92.50
23079;DHT22;11707;50.830;4.364;2022-08-16T13:11:26;32.20;91.80
23079;DHT22;11707;50.830;4.364;2022-08-16T13:13:54;32.30;91.60
23079;DHT22;11707;50.830;4.364;2022-08-16T13:16:20;31.50;91.50
23079;DHT22;11707;50.830;4.364;2022-08-16T13:18:46;31.20;92.20
23079;DHT22;11707;50.830;4.364;2022-08-16T13:21:12;31.30;91.40
23079;DHT22;11707;50.830;4.364;2022-08-16T13:23:38;31.40;91.50
23079;DHT22;11707;50.830;4.364;2022-08-16T13:26:04;31.50;91.10
23079;DHT22;11707;50.830;4.364;2022-08-16T13:28:30;31.70;91.10
23079;DHT22;11707;50.830;4.364;2022-08-16T13:30:57;31.50;90.80
23079;DHT22;11707;50.830;4.364;2022-08-16T13:33:27;31.50;90.80
23079;DHT22;11707;50.830;4.364;2022-08-16T13:35:55;31.30;90.80
23079;DHT22;11707;50.830;4.364;2022-08-16T13:38:22;31.00;91.10
23079;DHT22;11707;50.830;4.364;2022-08-16T13:40:48;31.20;91.20
23079;DHT22;11707;50.830;4.364;2022-08-16T13:43:15;31.60;90.20
23079;DHT22;11707;50.830;4.364;2022-08-16T13:45:40;31.80;89.70
23079;DHT22;11707;50.830;4.364;2022-08-16T13:48:07;31.30;90.20
23079;DHT22;11707;50.830;4.364;2022-08-16T13:50:34;30.80;90.60
23079;DHT22;11707;50.830;4.364;2022-08-16T13:53:00;30.70;90.60
23079;DHT22;11707;50.830;4.364;2022-08-16T13:55:27;30.30;91.00
23079;DHT22;11707;50.830;4.364;2022-08-16T13:57:52;29.90;91.60
23079;DHT22;11707;50.830;4.364;2022-08-16T14:00:19;29.70;92.30
23079;DHT22;11707;50.830;4.364;2022-08-16T14:02:45;29.50;92.30
23079;DHT22;11707;50.830;4.364;2022-08-16T14:05:12;29.20;93.10
23079;DHT22;11707;50.830;4.364;2022-08-16T14:07:38;29.10;93.10
23079;DHT22;11707;50.830;4.364;2022-08-16T14:10:05;28.90;93.60
23079;DHT22;11707;50.830;4.364;2022-08-16T14:12:32;28.90;93.80
23079;DHT22;11707;50.830;4.364;2022-08-16T14:14:59;29.10;93.50
23079;DHT22;11707;50.830;4.364;2022-08-16T14:17:26;29.20;93.10
23079;DHT22;11707;50.830;4.364;2022-08-16T14:19:53;29.30;93.00
23079;DHT22;11707;50.830;4.364;2022-08-16T14:22:23;29.40;92.70
23079;DHT22;11707;50.830;4.364;2022-08-16T14:24:50;29.40;92.60
23079;DHT22;11707;50.830;4.364;2022-08-16T14:27:18;29.60;92.50
23079;DHT22;11707;50.830;4.364;2022-08-16T14:29:46;29.70;92.30
23079;DHT22;11707;50.830;4.364;2022-08-16T14:32:12;29.70;92.30
23079;DHT22;11707;50.830;4.364;2022-08-16T14:34:38;30.00;92.10
23079;DHT22;11707;50.830;4.364;2022-08-16T14:37:04;29.90;92.20
23079;DHT22;11707;50.830;4.364;2022-08-16T14:39:31;30.30;91.90
23079;DHT22;11707;50.830;4.364;2022-08-16T14:42:10;31.20;90.80
23079;DHT22;11707;50.830;4.364;2022-08-16T14:44:36;31.50;89.50
23079;DHT22;11707;50.830;4.364;2022-08-16T14:47:03;31.10;90.00
23079;DHT22;11707;50.830;4.364;2022-08-16T14:49:30;30.70;90.50
23079;DHT22;11707;50.830;4.364;2022-08-16T14:52:06;30.60;90.90
23079;DHT22;11707;50.830;4.364;2022-08-16T14:54:32;31.00;90.10
23079;DHT22;11707;50.830;4.364;2022-08-16T14:56:58;31.40;90.20
23079;DHT22;11707;50.830;4.364;2022-08-16T14:59:25;32.60;85.80
23079;DHT22;11707;50.830;4.364;2022-08-16T15:01:53;32.80;83.90
23079;DHT22;11707;50.830;4.364;2022-08-16T15:04:18;32.30;84.40
23079;DHT22;11707;50.830;4.364;2022-08-16T15:06:44;31.30;86.40
23079;DHT22;11707;50.830;4.364;2022-08-16T15:09:10;31.10;88.00
23079;DHT22;11707;50.830;4.364;2022-08-16T15:11:36;31.40;87.20
23079;DHT22;11707;50.830;4.364;2022-08-16T15:14:02;31.90;86.00
23079;DHT22;11707;50.830;4.364;2022-08-16T15:16:28;32.40;84.00
23079;DHT22;11707;50.830;4.364;2022-08-16T15:18:54;32.90;82.90
23079;DHT22;11707;50.830;4.364;2022-08-16T15:21:20;32.60;81.50
23079;DHT22;11707;50.830;4.364;2022-08-16T15:23:46;31.50;84.40
23079;DHT22;11707;50.830;4.364;2022-08-16T15:26:11;31.00;85.70
23079;DHT22;11707;50.830;4.364;2022-08-16T15:28:37;30.50;87.60
23079;DHT22;11707;50.830;4.364;2022-08-16T15:31:05;30.30;88.40
23079;DHT22;11707;50.830;4.364;2022-08-16T15:33:35;30.00;89.40
23079;DHT22;11707;50.830;4.364;2022-08-16T15:36:02;29.60;90.10
23079;DHT22;11707;50.830;4.364;2022-08-16T15:38:28;29.50;90.50